Time;durP1;ratioP1;P1;durP2;ratioP2;P2;SDS_P1;SDS_P2;PMS_P1;PMS_P2;Temp;Humidity;BMP_temperature;BMP_pressure;BME280_temperature;BME280_humidity;BME280_pressure;Samples;Min_cycle;Max_cycle;Signal;HPM_P1;HPM_P2
2022/05/24 00:00:49;;;;;;;16.77;14.90;;;15.30;99.90;;;;;;5040692;28;20224;-82
2022/05/24 00:03:17;;;;;;;16.73;14.55;;;15.40;99.90;;;;;;5034663;28;20195;-82
2022/05/24 00:05:47;;;;;;;17.75;15.48;;;15.50;99.90;;;;;;5049351;28;20204;-83
2022/05/24 00:08:14;;;;;;;17.85;16.05;;;15.50;99.90;;;;;;5019351;28;20242;-83
2022/05/24 00:10:48;;;;;;;20.13;17.92;;;15.40;99.90;;;;;;5022489;28;20200;-88
2022/05/24 00:13:17;;;;;;;21.23;18.63;;;15.40;99.90;;;;;;5029264;28;20714;-84
2022/05/24 00:15:45;;;;;;;19.95;17.52;;;15.40;99.90;;;;;;5024449;28;20214;-83
2022/05/24 00:18:16;;;;;;;21.55;18.42;;;15.50;99.90;;;;;;5043071;28;20218;-83
2022/05/24 00:20:45;;;;;;;20.63;18.42;;;15.40;99.90;;;;;;5031748;28;20206;-82
2022/05/24 00:23:13;;;;;;;19.90;17.63;;;15.50;99.90;;;;;;5031599;28;20212;-83
2022/05/24 00:25:44;;;;;;;22.30;18.55;;;15.60;99.90;;;;;;5028537;28;20209;-88
2022/05/24 00:28:13;;;;;;;22.00;19.00;;;15.60;99.90;;;;;;5033901;28;20223;-82
2022/05/24 00:30:43;;;;;;;21.42;18.95;;;15.60;99.90;;;;;;5029413;28;20205;-86
2022/05/24 00:33:10;;;;;;;22.25;19.63;;;15.50;99.90;;;;;;5023604;28;20197;-82
2022/05/24 00:35:38;;;;;;;24.95;19.95;;;15.50;99.90;;;;;;5017588;28;20199;-83
2022/05/24 00:38:09;;;;;;;25.20;20.80;;;15.40;99.90;;;;;;5063234;28;20238;-82
2022/05/24 00:40:47;;;;;;;21.38;19.02;;;15.40;99.90;;;;;;5039157;28;20199;-85
2022/05/24 00:43:28;;;;;;;25.30;20.83;;;15.70;99.90;;;;;;5034042;28;20213;-83
2022/05/24 00:46:01;;;;;;;24.73;21.48;;;15.60;99.90;;;;;;5037709;28;20206;-82
2022/05/24 00:48:33;;;;;;;25.80;21.58;;;15.60;99.90;;;;;;5038400;28;20214;-83
2022/05/24 00:51:02;;;;;;;25.05;22.35;;;15.60;99.90;;;;;;5034886;28;20676;-83
2022/05/24 00:53:37;;;;;;;28.17;22.65;;;15.70;99.90;;;;;;5027856;28;20565;-82
2022/05/24 00:56:09;;;;;;;25.25;22.30;;;15.50;99.90;;;;;;5025872;28;20226;-84
2022/05/24 00:58:42;;;;;;;24.80;22.30;;;15.70;99.90;;;;;;5032970;28;20249;-84
2022/05/24 01:01:28;;;;;;;26.05;22.20;;;15.60;99.90;;;;;;5068891;28;20199;-84
2022/05/24 01:03:58;;;;;;;28.40;24.17;;;15.50;99.90;;;;;;5042300;28;20203;-82
2022/05/24 01:06:26;;;;;;;27.05;23.55;;;15.50;99.90;;;;;;5029235;28;20641;-83
2022/05/24 01:08:57;;;;;;;29.92;22.83;;;15.60;99.90;;;;;;5044288;28;20245;-86
2022/05/24 01:11:27;;;;;;;28.38;23.77;;;15.30;99.90;;;;;;5041155;28;20194;-82
2022/05/24 01:13:58;;;;;;;26.77;22.92;;;15.30;99.90;;;;;;5037364;28;20203;-82
2022/05/24 01:16:27;;;;;;;26.48;22.52;;;15.30;99.90;;;;;;5038749;28;20215;-82
2022/05/24 01:18:54;;;;;;;25.27;21.35;;;15.30;99.90;;;;;;5038711;28;20222;-83
2022/05/24 01:21:22;;;;;;;28.45;23.23;;;15.20;99.90;;;;;;5026098;28;20224;-82
2022/05/24 01:23:59;;;;;;;28.63;23.08;;;15.10;99.90;;;;;;5041298;28;20199;-82
2022/05/24 01:26:38;;;;;;;24.77;21.30;;;15.20;99.90;;;;;;5042060;28;20206;-82
2022/05/24 01:29:09;;;;;;;23.85;20.50;;;15.30;99.90;;;;;;5070929;22;20875;-78
2022/05/24 01:37:06;;;;;;;21.75;19.15;;;15.00;99.90;;;;;;5023715;28;20226;-77
2022/05/24 01:39:34;;;;;;;21.63;18.65;;;15.20;99.90;;;;;;5020233;28;20224;-79
2022/05/24 01:42:04;;;;;;;22.27;19.38;;;15.00;99.90;;;;;;5012011;28;20202;-78
2022/05/24 01:44:37;;;;;;;21.05;18.00;;;14.90;99.90;;;;;;5018726;28;20204;-79
2022/05/24 01:47:05;;;;;;;21.25;17.60;;;15.00;99.90;;;;;;5016973;28;20203;-76
2022/05/24 01:49:36;;;;;;;21.17;17.63;;;15.00;99.90;;;;;;5017840;28;20230;-79
2022/05/24 01:52:31;;;;;;;24.88;19.58;;;15.10;99.90;;;;;;5015209;28;20203;-78
2022/05/24 01:55:02;;;;;;;22.92;19.67;;;15.00;99.90;;;;;;5014688;28;20211;-78
2022/05/24 01:57:35;;;;;;;24.17;18.95;;;15.10;99.90;;;;;;5013849;28;20219;-79
2022/05/24 02:00:06;;;;;;;21.55;19.27;;;15.20;99.90;;;;;;5006897;28;20674;-76
2022/05/24 02:02:42;;;;;;;19.33;16.70;;;15.10;99.90;;;;;;5008964;28;20568;-79
2022/05/24 02:05:11;;;;;;;25.15;19.30;;;15.20;99.90;;;;;;5010365;28;20203;-79
2022/05/24 02:07:40;;;;;;;26.75;20.05;;;15.10;99.90;;;;;;5033960;28;20200;-79
2022/05/24 02:10:08;;;;;;;23.42;19.50;;;15.10;99.90;;;;;;5013166;28;20220;-76
2022/05/24 02:12:44;;;;;;;26.15;20.48;;;15.20;99.90;;;;;;5007238;28;20188;-77
2022/05/24 02:15:14;;;;;;;20.20;17.80;;;15.20;99.90;;;;;;5034280;28;20199;-79
2022/05/24 02:17:48;;;;;;;24.40;20.30;;;15.40;99.90;;;;;;5025776;28;20222;-79
2022/05/24 02:20:19;;;;;;;24.83;20.25;;;15.30;99.90;;;;;;5013818;28;20219;-79
2022/05/24 02:22:48;;;;;;;22.40;20.00;;;15.20;99.90;;;;;;5022908;28;20219;-79
2022/05/24 02:25:20;;;;;;;27.52;21.02;;;15.20;99.90;;;;;;5026465;28;20200;-78
2022/05/24 02:27:54;;;;;;;23.88;19.70;;;15.20;99.90;;;;;;5020456;28;20207;-78
2022/05/24 02:30:25;;;;;;;24.58;20.80;;;15.30;99.90;;;;;;5020729;28;20216;-78
2022/05/24 02:32:53;;;;;;;24.90;20.23;;;15.30;99.90;;;;;;5006548;28;20211;-78
2022/05/24 02:35:23;;;;;;;25.38;20.83;;;15.30;99.90;;;;;;5013786;28;20202;-78
2022/05/24 02:37:51;;;;;;;24.70;20.55;;;15.30;99.90;;;;;;5011060;28;20712;-78
2022/05/24 02:43:05;;;;;;;25.27;21.40;;;15.30;99.90;;;;;;5006583;28;20188;-78
2022/05/24 02:45:32;;;;;;;25.23;21.25;;;15.30;99.90;;;;;;5022733;28;21213;-78
2022/05/24 02:48:00;;;;;;;24.95;21.50;;;15.30;99.90;;;;;;5025315;28;20192;-77
2022/05/24 02:50:28;;;;;;;24.13;21.48;;;15.20;99.90;;;;;;5013470;28;20226;-78
2022/05/24 02:52:55;;;;;;;22.67;19.42;;;15.10;99.90;;;;;;5025914;28;20200;-78
2022/05/24 02:55:25;;;;;;;25.10;21.33;;;15.20;99.90;;;;;;5008605;28;20211;-78
2022/05/24 02:57:52;;;;;;;25.17;19.85;;;15.20;99.90;;;;;;5011486;28;20224;-78
2022/05/24 03:00:24;;;;;;;23.85;19.63;;;15.30;99.90;;;;;;5020919;28;20219;-78
2022/05/24 03:02:52;;;;;;;23.17;19.77;;;15.30;99.90;;;;;;5020930;28;20200;-78
2022/05/24 03:05:24;;;;;;;24.75;20.25;;;15.30;99.90;;;;;;5017790;28;20195;-78
2022/05/24 03:10:37;;;;;;;26.20;19.75;;;15.20;99.90;;;;;;5034414;28;20210;-77
2022/05/24 03:15:51;;;;;;;18.88;16.88;;;15.10;99.90;;;;;;5009424;28;20183;-77
2022/05/24 03:18:21;;;;;;;18.90;15.90;;;15.10;99.90;;;;;;5010452;28;20212;-77
2022/05/24 03:20:48;;;;;;;17.52;15.32;;;14.90;99.90;;;;;;5021152;28;20212;-77
2022/05/24 03:23:17;;;;;;;19.23;15.75;;;14.90;99.90;;;;;;5007578;28;20202;-76
2022/05/24 03:25:44;;;;;;;19.95;15.73;;;14.90;99.90;;;;;;5029303;28;20203;-77
2022/05/24 03:28:12;;;;;;;18.95;15.95;;;14.90;99.90;;;;;;5009961;28;20187;-77
2022/05/24 03:30:43;;;;;;;17.15;14.45;;;14.80;99.90;;;;;;5008908;28;20665;-77
2022/05/24 03:33:12;;;;;;;19.27;14.30;;;14.80;99.90;;;;;;5009847;28;20207;-77
2022/05/24 03:35:40;;;;;;;19.17;14.63;;;14.80;99.90;;;;;;5021966;28;20211;-77
2022/05/24 03:38:07;;;;;;;17.75;13.75;;;14.80;99.90;;;;;;5009820;28;20558;-77
2022/05/24 03:40:35;;;;;;;17.38;13.40;;;14.80;99.90;;;;;;5032147;28;20214;-77
2022/05/24 03:43:04;;;;;;;13.65;12.25;;;14.80;99.90;;;;;;5005070;28;20192;-77
2022/05/24 03:45:32;;;;;;;15.13;11.30;;;14.60;99.90;;;;;;5018221;28;20208;-77
2022/05/24 03:47:59;;;;;;;11.52;10.23;;;14.60;99.90;;;;;;5023356;28;20204;-77
2022/05/24 03:50:28;;;;;;;12.43;9.30;;;14.70;99.90;;;;;;5005123;28;20222;-77
2022/05/24 03:52:56;;;;;;;10.07;8.40;;;14.50;99.90;;;;;;5011275;28;20196;-77
2022/05/24 03:55:23;;;;;;;11.30;8.27;;;14.30;99.90;;;;;;5010663;28;20207;-77
2022/05/24 03:58:02;;;;;;;11.80;7.40;;;14.30;99.90;;;;;;5025661;28;20228;-77
2022/05/24 04:00:33;;;;;;;11.70;7.30;;;14.30;99.90;;;;;;5010188;28;20224;-77
2022/05/24 04:03:01;;;;;;;10.32;6.45;;;14.30;99.90;;;;;;5023072;28;20211;-77
2022/05/24 04:05:31;;;;;;;7.28;5.95;;;14.30;99.90;;;;;;5022642;28;20202;-75
2022/05/24 04:08:00;;;;;;;9.40;6.25;;;14.30;99.90;;;;;;5000834;28;20193;-77
2022/05/24 04:10:29;;;;;;;6.45;5.55;;;14.40;99.90;;;;;;5020150;28;20212;-77
2022/05/24 04:12:56;;;;;;;9.73;5.75;;;14.40;99.90;;;;;;5021577;28;21572;-77
2022/05/24 04:15:26;;;;;;;8.57;5.93;;;14.30;99.90;;;;;;5005037;28;20238;-77
2022/05/24 04:17:55;;;;;;;6.63;5.50;;;14.20;99.90;;;;;;5005402;28;20220;-75
2022/05/24 04:20:25;;;;;;;6.13;5.50;;;14.30;99.90;;;;;;5009377;28;20220;-77
2022/05/24 04:22:54;;;;;;;6.88;5.68;;;14.20;99.90;;;;;;5004384;28;20223;-77
2022/05/24 04:25:22;;;;;;;10.02;6.38;;;14.20;99.90;;;;;;5008236;28;20207;-77
2022/05/24 04:27:50;;;;;;;8.90;6.30;;;14.20;99.90;;;;;;5008993;28;20200;-77
2022/05/24 04:30:21;;;;;;;7.25;6.25;;;14.10;99.90;;;;;;5008975;28;20736;-78
2022/05/24 04:32:51;;;;;;;8.95;6.50;;;14.20;99.90;;;;;;5021786;28;20203;-77
2022/05/24 04:35:19;;;;;;;9.10;6.60;;;14.20;99.90;;;;;;5017797;28;20207;-77
2022/05/24 04:37:47;;;;;;;9.73;6.38;;;14.20;99.90;;;;;;5001254;28;20207;-77
2022/05/24 04:40:16;;;;;;;8.63;6.22;;;14.30;99.90;;;;;;5024520;28;20295;-77
2022/05/24 04:42:42;;;;;;;8.35;5.80;;;14.30;99.90;;;;;;5008733;28;20203;-76
2022/05/24 04:45:19;;;;;;;6.88;5.38;;;14.30;99.90;;;;;;5024369;28;20591;-77
2022/05/24 04:47:46;;;;;;;8.23;5.70;;;14.30;99.90;;;;;;5008841;28;20568;-77
2022/05/24 04:50:14;;;;;;;10.93;5.25;;;14.30;99.90;;;;;;5010741;28;20226;-77
2022/05/24 04:52:42;;;;;;;8.98;5.47;;;14.30;99.90;;;;;;5019443;28;20219;-77
2022/05/24 04:55:12;;;;;;;9.32;6.18;;;14.20;99.90;;;;;;5024174;28;20210;-77
2022/05/24 04:57:43;;;;;;;8.15;5.45;;;14.20;99.90;;;;;;5023120;28;20214;-77
2022/05/24 05:00:14;;;;;;;8.25;5.47;;;14.30;99.90;;;;;;5012599;28;20220;-77
2022/05/24 05:02:41;;;;;;;7.88;5.72;;;14.20;99.90;;;;;;5008992;28;20210;-77
2022/05/24 05:05:09;;;;;;;10.40;5.43;;;14.20;99.90;;;;;;5008527;28;20690;-77
2022/05/24 05:07:37;;;;;;;6.90;5.50;;;14.30;99.90;;;;;;5009925;28;21243;-77
2022/05/24 05:10:05;;;;;;;6.55;5.78;;;14.30;99.90;;;;;;5002747;28;20211;-77
2022/05/24 05:12:32;;;;;;;9.40;6.10;;;14.20;99.90;;;;;;5024254;28;20203;-77
2022/05/24 05:15:07;;;;;;;10.18;6.13;;;14.20;99.90;;;;;;5007631;28;20204;-77
2022/05/24 05:17:34;;;;;;;9.68;5.72;;;14.30;99.90;;;;;;4996188;28;20211;-78
2022/05/24 05:20:02;;;;;;;9.00;4.95;;;14.10;99.90;;;;;;5023833;28;20223;-77
2022/05/24 05:22:29;;;;;;;8.57;5.45;;;14.20;99.90;;;;;;5010436;28;20196;-77
2022/05/24 05:25:01;;;;;;;7.28;4.88;;;14.20;99.90;;;;;;5006550;28;20203;-78
2022/05/24 05:27:29;;;;;;;12.27;5.50;;;14.20;99.90;;;;;;5022687;28;20202;-77
2022/05/24 05:32:50;;;;;;;7.78;4.47;;;14.00;99.90;;;;;;5007909;28;20541;-78
2022/05/24 05:35:47;;;;;;;9.75;4.88;;;14.10;99.90;;;;;;5010142;28;20199;-78
2022/05/24 05:38:15;;;;;;;10.57;4.90;;;13.90;99.90;;;;;;5010660;28;20215;-78
2022/05/24 05:40:42;;;;;;;10.55;5.47;;;14.00;99.90;;;;;;5025036;28;20195;-78
2022/05/24 05:43:10;;;;;;;8.27;5.15;;;14.00;99.90;;;;;;5024070;28;20255;-79
2022/05/24 05:45:39;;;;;;;9.32;5.28;;;14.10;99.90;;;;;;5011710;28;20546;-78
2022/05/24 05:48:24;;;;;;;7.28;5.20;;;14.10;99.90;;;;;;5017625;28;20204;-78
2022/05/24 05:51:09;;;;;;;8.10;5.50;;;14.00;99.90;;;;;;5024910;28;20211;-77
2022/05/24 05:53:51;;;;;;;10.50;5.60;;;13.80;99.90;;;;;;5019369;28;20209;-77
2022/05/24 05:56:20;;;;;;;9.32;4.55;;;13.80;99.90;;;;;;5016753;28;20200;-77
2022/05/24 05:58:51;;;;;;;9.73;5.43;;;13.80;99.90;;;;;;5021789;28;20729;-79
2022/05/24 06:01:21;;;;;;;8.50;4.93;;;13.70;99.90;;;;;;5007463;28;20204;-77
2022/05/24 06:03:58;;;;;;;8.73;4.40;;;13.60;99.90;;;;;;5019631;28;20196;-77
2022/05/24 06:06:28;;;;;;;6.55;4.78;;;13.60;99.90;;;;;;5013929;28;20199;-76
2022/05/24 06:08:56;;;;;;;11.20;5.20;;;13.50;99.90;;;;;;5010606;28;20239;-77
2022/05/24 06:11:25;;;;;;;7.82;5.30;;;13.50;99.90;;;;;;5035330;28;20203;-77
2022/05/24 06:13:52;;;;;;;7.10;4.85;;;13.60;99.90;;;;;;5013522;28;20208;-77
2022/05/24 06:16:21;;;;;;;7.35;4.95;;;13.60;99.90;;;;;;5005436;28;20196;-76
2022/05/24 06:18:56;;;;;;;7.15;4.80;;;13.70;99.90;;;;;;5016560;28;20220;-76
2022/05/24 06:21:25;;;;;;;9.43;5.00;;;13.70;99.90;;;;;;5014285;28;20562;-77
2022/05/24 06:23:54;;;;;;;9.75;5.50;;;13.50;99.90;;;;;;5012154;28;20204;-77
2022/05/24 06:26:21;;;;;;;7.23;5.13;;;13.50;99.90;;;;;;5015401;28;20569;-76
2022/05/24 06:28:49;;;;;;;6.07;4.03;;;13.40;99.90;;;;;;5010820;28;20677;-76
2022/05/24 06:31:16;;;;;;;7.85;4.35;;;13.50;99.90;;;;;;5003739;28;20196;-76
2022/05/24 06:33:44;;;;;;;7.32;4.63;;;13.50;99.90;;;;;;5031017;28;20206;-76
2022/05/24 06:36:27;;;;;;;6.88;3.70;;;13.30;99.90;;;;;;5009037;28;20196;-77
2022/05/24 06:38:55;;;;;;;8.80;4.10;;;13.40;99.90;;;;;;5007043;28;20231;-78
2022/05/24 06:41:26;;;;;;;7.55;4.72;;;13.30;99.90;;;;;;5003248;28;20188;-77
2022/05/24 06:43:54;;;;;;;6.80;4.20;;;13.20;99.90;;;;;;5010683;28;20224;-77
2022/05/24 06:46:21;;;;;;;8.77;4.60;;;13.30;99.90;;;;;;5010561;28;20199;-78
2022/05/24 06:48:49;;;;;;;7.50;3.78;;;13.20;99.90;;;;;;5023907;28;20220;-77
2022/05/24 06:51:19;;;;;;;5.27;3.87;;;13.20;99.90;;;;;;5022713;28;20211;-77
2022/05/24 06:53:49;;;;;;;6.60;3.40;;;13.30;99.90;;;;;;5020246;28;20196;-77
2022/05/24 06:56:17;;;;;;;4.43;3.45;;;13.20;99.90;;;;;;5024101;28;20199;-77
2022/05/24 07:04:32;;;;;;;5.47;3.30;;;13.10;99.90;;;;;;5006117;28;20200;-77
2022/05/24 07:07:00;;;;;;;5.95;3.53;;;13.30;99.90;;;;;;5028305;28;20200;-76
2022/05/24 07:09:31;;;;;;;7.28;3.70;;;13.30;99.90;;;;;;5025168;28;20589;-76
2022/05/24 07:11:59;;;;;;;6.05;3.20;;;13.20;99.90;;;;;;5014200;28;20530;-77
2022/05/24 07:14:28;;;;;;;8.45;3.90;;;13.10;99.90;;;;;;5023703;28;20220;-77
2022/05/24 07:16:55;;;;;;;7.90;3.27;;;13.00;99.90;;;;;;5011969;28;20208;-77
2022/05/24 07:19:28;;;;;;;6.73;3.33;;;13.10;99.90;;;;;;5028507;28;20223;-76
2022/05/24 07:21:55;;;;;;;5.43;2.97;;;12.90;99.90;;;;;;5020338;28;20204;-76
2022/05/24 07:24:22;;;;;;;6.68;3.25;;;13.00;99.90;;;;;;4996609;28;20197;-77
2022/05/24 07:26:52;;;;;;;7.15;3.38;;;13.20;99.90;;;;;;5009191;28;20192;-77
2022/05/24 07:32:47;;;;;;;6.63;2.70;;;13.20;99.90;;;;;;5031604;28;20202;-77
2022/05/24 07:35:15;;;;;;;6.78;3.08;;;13.10;99.90;;;;;;5026577;28;20203;-77
2022/05/24 07:37:42;;;;;;;8.18;3.17;;;13.30;99.90;;;;;;5022624;28;20195;-78
2022/05/24 07:45:51;;;;;;;5.85;2.97;;;13.50;99.90;;;;;;4993184;28;20200;-77
2022/05/24 07:48:19;;;;;;;5.75;3.30;;;13.50;99.90;;;;;;5010298;28;20211;-77
2022/05/24 07:50:47;;;;;;;6.50;2.50;;;13.30;99.90;;;;;;5002808;28;20192;-77
2022/05/24 07:53:15;;;;;;;3.93;2.57;;;13.50;99.90;;;;;;5018823;28;20703;-77
2022/05/24 07:55:44;;;;;;;7.13;2.92;;;13.50;99.90;;;;;;5022811;28;20226;-77
2022/05/24 07:58:13;;;;;;;6.33;2.83;;;13.60;99.90;;;;;;5008759;28;20205;-77
2022/05/24 08:00:41;;;;;;;3.63;2.30;;;13.70;99.90;;;;;;4997737;28;20223;-77
2022/05/24 08:03:10;;;;;;;5.03;2.70;;;13.70;99.90;;;;;;5021012;28;20196;-77
2022/05/24 08:05:38;;;;;;;5.80;3.40;;;13.60;99.90;;;;;;5016814;28;20566;-76
2022/05/24 08:08:06;;;;;;;3.67;2.90;;;13.60;99.90;;;;;;5004115;28;20200;-76
2022/05/24 08:10:35;;;;;;;4.80;2.63;;;13.40;99.90;;;;;;5010733;28;20218;-77
2022/05/24 08:13:04;;;;;;;4.13;2.63;;;13.60;99.90;;;;;;5020165;28;20219;-77
2022/05/24 08:15:34;;;;;;;5.15;2.80;;;13.80;99.90;;;;;;5013508;28;20199;-77
2022/05/24 08:18:01;;;;;;;6.85;3.38;;;14.00;99.90;;;;;;5012420;28;20204;-78
2022/05/24 08:20:30;;;;;;;4.28;2.78;;;13.90;99.90;;;;;;5005305;28;20212;-78
2022/05/24 08:22:58;;;;;;;4.45;2.70;;;13.90;99.90;;;;;;5011325;28;20200;-78
2022/05/24 08:25:27;;;;;;;6.05;2.85;;;14.10;99.90;;;;;;5011470;28;20211;-78
2022/05/24 08:27:55;;;;;;;4.45;3.13;;;14.10;99.90;;;;;;5016284;28;20204;-78
2022/05/24 08:30:25;;;;;;;4.20;2.80;;;14.20;99.90;;;;;;5019566;28;20220;-78
2022/05/24 08:32:56;;;;;;;3.88;2.22;;;14.20;99.90;;;;;;5001012;28;20204;-78
2022/05/24 08:35:24;;;;;;;5.43;2.83;;;14.40;99.90;;;;;;5011868;28;20191;-78
2022/05/24 08:37:51;;;;;;;5.00;2.42;;;14.30;99.90;;;;;;5010398;28;20685;-77
2022/05/24 08:40:22;;;;;;;3.55;2.15;;;14.40;99.90;;;;;;5011914;28;20226;-78
2022/05/24 08:43:12;;;;;;;3.78;2.22;;;14.30;99.90;;;;;;4998806;28;20200;-77
2022/05/24 08:48:40;;;;;;;3.22;2.33;;;14.40;99.90;;;;;;5019394;28;20678;-78
2022/05/24 08:51:16;;;;;;;3.63;2.40;;;14.50;99.90;;;;;;5011691;28;20191;-78
2022/05/24 08:53:46;;;;;;;4.20;2.30;;;14.50;99.90;;;;;;5023894;28;20191;-78
2022/05/24 08:56:18;;;;;;;3.38;2.47;;;14.50;99.90;;;;;;5009111;28;20577;-78
2022/05/24 08:58:50;;;;;;;2.65;2.20;;;14.70;99.90;;;;;;5010495;28;20703;-78
2022/05/24 09:01:23;;;;;;;3.45;2.30;;;14.90;99.90;;;;;;5005818;28;20207;-78
2022/05/24 09:03:52;;;;;;;3.13;2.30;;;15.10;99.90;;;;;;5012248;28;20210;-78
2022/05/24 09:06:35;;;;;;;5.35;2.30;;;15.10;99.90;;;;;;5024865;28;20204;-78
2022/05/24 09:09:25;;;;;;;4.45;2.40;;;15.00;99.90;;;;;;5014758;28;20219;-78
2022/05/24 09:12:01;;;;;;;2.10;1.90;;;15.00;99.90;;;;;;4994657;28;20754;-78
2022/05/24 09:14:34;;;;;;;3.72;2.10;;;15.00;99.90;;;;;;4999359;28;20202;-78
2022/05/24 09:17:33;;;;;;;3.47;2.15;;;14.80;99.90;;;;;;5009389;28;20192;-78
2022/05/24 09:20:11;;;;;;;3.40;2.20;;;14.70;99.90;;;;;;5020660;28;20216;-78
2022/05/24 09:22:39;;;;;;;3.50;2.20;;;14.60;99.90;;;;;;5011507;28;20206;-79
2022/05/24 09:25:07;;;;;;;3.13;2.00;;;14.50;99.90;;;;;;5020958;28;20200;-78
2022/05/24 09:27:49;;;;;;;3.70;2.17;;;14.50;99.90;;;;;;5006029;28;20211;-79
2022/05/24 09:30:45;;;;;;;4.18;2.70;;;14.60;99.90;;;;;;5019667;28;20214;-78
2022/05/24 09:33:25;;;;;;;4.97;2.60;;;14.60;99.90;;;;;;4999689;28;20299;-78
2022/05/24 09:36:06;;;;;;;7.25;2.75;;;14.70;99.90;;;;;;5013923;28;20203;-76
2022/05/24 09:38:43;;;;;;;7.05;2.58;;;14.80;99.90;;;;;;5020530;28;20223;-77
2022/05/24 09:41:55;;;;;;;5.80;3.10;;;14.80;99.90;;;;;;5018020;28;20220;-76
2022/05/24 09:44:43;;;;;;;5.30;3.00;;;14.70;99.90;;;;;;4940303;28;20200;-77
2022/05/24 09:47:44;;;;;;;;;;;;;;;;;;;;;
2022/05/24 09:50:51;;;;;;;5.82;2.33;;;14.70;99.90;;;;;;4995696;28;20220;-77
2022/05/24 09:53:49;;;;;;;3.30;2.60;;;14.70;99.90;;;;;;4939096;28;20201;-77
2022/05/24 09:56:24;;;;;;;2.33;1.98;;;14.70;99.90;;;;;;4855214;29;20366;-77
2022/05/24 09:58:55;;;;;;;4.10;2.15;;;14.70;99.90;;;;;;4966372;28;20299;-77
2022/05/24 10:01:40;;;;;;;3.10;2.22;;;14.90;99.90;;;;;;5016450;28;20223;-77
2022/05/24 10:04:18;;;;;;;3.50;2.20;;;14.90;99.90;;;;;;5004793;28;20665;-77
2022/05/24 10:06:56;;;;;;;3.10;1.73;;;14.80;99.90;;;;;;5013961;28;20201;-78
2022/05/24 10:09:50;;;;;;;5.32;2.63;;;14.80;99.90;;;;;;5005444;28;20582;-77
2022/05/24 10:12:39;;;;;;;3.30;2.33;;;14.80;99.90;;;;;;4994842;28;20550;-77
2022/05/24 10:15:18;;;;;;;5.22;2.10;;;14.80;99.90;;;;;;5003931;28;20208;-76
2022/05/24 10:17:58;;;;;;;4.22;2.15;;;14.70;99.90;;;;;;5007914;28;20207;-78
2022/05/24 10:20:35;;;;;;;3.20;1.92;;;14.90;99.90;;;;;;5008557;28;20227;-78
2022/05/24 10:23:08;;;;;;;4.43;2.97;;;15.20;99.90;;;;;;5005794;28;20207;-78
2022/05/24 10:25:41;;;;;;;3.55;1.70;;;15.50;99.90;;;;;;5012058;28;20204;-78
2022/05/24 10:28:21;;;;;;;6.63;3.25;;;15.50;99.90;;;;;;5016112;28;20210;-78
2022/05/24 10:31:00;;;;;;;5.03;2.03;;;16.60;99.90;;;;;;5028580;28;20191;-78
2022/05/24 10:39:38;;;;;;;2.25;1.50;;;16.00;99.90;;;;;;5005512;28;20226;-78
2022/05/24 10:42:14;;;;;;;4.28;1.38;;;15.80;99.90;;;;;;5020941;28;20227;-78
2022/05/24 10:44:45;;;;;;;4.72;1.70;;;16.10;99.90;;;;;;5006702;28;20662;-78
2022/05/24 10:47:22;;;;;;;2.50;1.63;;;16.30;99.90;;;;;;5013448;28;20200;-76
2022/05/24 10:49:53;;;;;;;1.75;1.63;;;16.20;99.90;;;;;;5029856;28;20219;-77
2022/05/24 10:52:30;;;;;;;1.75;1.40;;;16.30;99.90;;;;;;5017989;28;20195;-78
2022/05/24 10:55:06;;;;;;;3.20;1.30;;;16.30;99.90;;;;;;5007975;28;20199;-78
2022/05/24 10:57:42;;;;;;;2.20;2.00;;;16.20;99.90;;;;;;5028665;28;20210;-78
2022/05/24 11:00:14;;;;;;;4.35;1.85;;;16.10;99.90;;;;;;5011553;28;20216;-78
2022/05/24 11:02:47;;;;;;;2.88;1.60;;;16.00;99.90;;;;;;5019703;28;20215;-78
2022/05/24 11:05:21;;;;;;;2.67;1.60;;;15.90;99.90;;;;;;5008436;28;20203;-78
2022/05/24 11:07:55;;;;;;;1.90;1.73;;;15.80;99.90;;;;;;5026280;28;20213;-78
2022/05/24 11:10:26;;;;;;;1.70;1.30;;;15.60;99.90;;;;;;5012713;28;20228;-78
2022/05/24 11:12:58;;;;;;;2.70;1.52;;;15.70;99.90;;;;;;5010015;28;20199;-78
2022/05/24 11:15:33;;;;;;;2.22;1.77;;;16.00;99.90;;;;;;5008111;28;21156;-78
2022/05/24 11:18:02;;;;;;;2.97;1.60;;;16.40;99.90;;;;;;5008002;28;20195;-77
2022/05/24 11:20:37;;;;;;;3.85;1.75;;;16.50;99.90;;;;;;5014568;28;20219;-78
2022/05/24 11:23:14;;;;;;;3.20;1.70;;;16.60;99.90;;;;;;5011295;28;20192;-78
2022/05/24 11:25:49;;;;;;;4.32;1.50;;;16.70;99.90;;;;;;5026665;28;20210;-78
2022/05/24 11:28:22;;;;;;;2.25;1.50;;;17.00;99.90;;;;;;5026875;28;20200;-78
2022/05/24 11:30:51;;;;;;;2.15;1.20;;;17.10;99.90;;;;;;5010412;28;20266;-78
2022/05/24 11:33:35;;;;;;;3.72;1.40;;;16.90;99.90;;;;;;5009826;28;20207;-78
2022/05/24 11:36:21;;;;;;;3.55;2.15;;;16.80;99.90;;;;;;5010946;28;20199;-77
2022/05/24 11:38:50;;;;;;;3.30;1.42;;;16.80;99.90;;;;;;5007052;28;20231;-78
2022/05/24 11:41:26;;;;;;;2.92;1.20;;;16.70;97.90;;;;;;5023467;28;20228;-78
2022/05/24 11:44:01;;;;;;;1.15;1.05;;;16.90;97.30;;;;;;5023544;28;20225;-78
2022/05/24 11:46:46;;;;;;;2.17;1.40;;;17.20;97.30;;;;;;5029090;28;20207;-78
2022/05/24 11:50:04;;;;;;;1.92;0.95;;;17.40;97.40;;;;;;5017115;28;20219;-78
2022/05/24 11:53:04;;;;;;;1.67;0.90;;;17.80;97.10;;;;;;5008081;28;20203;-78
2022/05/24 11:55:51;;;;;;;3.33;1.08;;;17.60;95.60;;;;;;4990528;28;20212;-78
2022/05/24 11:58:47;;;;;;;1.95;1.10;;;17.70;97.00;;;;;;5027963;28;20199;-78
2022/05/24 12:01:35;;;;;;;3.47;1.60;;;17.50;95.30;;;;;;5006985;28;20210;-78
2022/05/24 12:10:41;;;;;;;2.90;1.60;;;17.30;97.60;;;;;;5012771;28;20211;-77
2022/05/24 12:13:26;;;;;;;1.45;1.23;;;17.40;97.10;;;;;;5019030;28;20537;-78
2022/05/24 12:15:56;;;;;;;3.58;1.50;;;17.40;96.80;;;;;;5026085;28;20199;-78
2022/05/24 12:18:38;;;;;;;2.30;1.30;;;17.40;95.80;;;;;;5018380;28;20214;-79
2022/05/24 12:21:06;;;;;;;3.53;1.52;;;17.30;96.50;;;;;;5008067;28;20200;-79
2022/05/24 12:23:40;;;;;;;2.25;1.20;;;17.40;97.80;;;;;;5001273;28;20207;-78
2022/05/24 12:26:10;;;;;;;1.48;1.30;;;17.30;95.90;;;;;;5030335;28;20203;-78
2022/05/24 12:28:53;;;;;;;1.95;1.23;;;17.20;96.30;;;;;;5029844;28;20757;-77
2022/05/24 12:31:32;;;;;;;2.03;1.17;;;17.10;97.00;;;;;;5018392;28;20200;-78
2022/05/24 12:34:03;;;;;;;2.30;1.42;;;17.10;97.30;;;;;;5011008;28;20200;-78
2022/05/24 12:36:43;;;;;;;1.50;1.30;;;17.00;97.00;;;;;;4997493;28;20199;-78
2022/05/24 12:39:13;;;;;;;2.13;1.42;;;16.90;98.30;;;;;;5019207;28;20712;-78
2022/05/24 12:41:42;;;;;;;2.20;1.30;;;16.90;98.90;;;;;;5024375;28;20216;-77
2022/05/24 12:44:18;;;;;;;3.85;1.08;;;16.90;98.20;;;;;;5023071;28;20201;-78
2022/05/24 12:46:53;;;;;;;2.58;1.10;;;16.80;97.60;;;;;;5016845;28;20194;-78
2022/05/24 12:49:24;;;;;;;2.08;1.30;;;16.70;97.80;;;;;;5012794;28;20223;-78
2022/05/24 12:51:56;;;;;;;1.67;1.00;;;16.70;97.60;;;;;;5021713;28;20210;-78
2022/05/24 12:54:29;;;;;;;1.60;1.10;;;16.70;97.70;;;;;;5005896;28;20203;-77
2022/05/24 12:57:02;;;;;;;2.08;1.50;;;16.70;97.60;;;;;;5029972;28;20210;-78
2022/05/24 12:59:40;;;;;;;3.35;1.30;;;16.80;97.60;;;;;;5020547;28;20231;-78
2022/05/24 13:02:36;;;;;;;3.28;1.52;;;16.80;97.40;;;;;;4995063;28;20573;-78
2022/05/24 13:05:14;;;;;;;2.92;1.08;;;17.00;98.50;;;;;;5007995;28;20196;-78
2022/05/24 13:07:45;;;;;;;2.13;1.38;;;17.20;97.10;;;;;;5030966;28;20200;-78
2022/05/24 13:10:22;;;;;;;3.00;1.42;;;17.20;97.50;;;;;;5006441;28;20222;-77
2022/05/24 13:12:51;;;;;;;2.15;1.30;;;17.10;96.20;;;;;;5028140;28;20211;-76
2022/05/24 13:15:22;;;;;;;2.90;1.23;;;17.00;96.10;;;;;;5012958;28;20187;-77
2022/05/24 13:17:54;;;;;;;5.38;1.60;;;17.10;96.90;;;;;;5026380;28;20227;-77
2022/05/24 13:20:31;;;;;;;1.40;1.30;;;17.30;97.20;;;;;;5017416;28;20224;-78
2022/05/24 13:23:02;;;;;;;3.17;1.10;;;17.40;96.80;;;;;;5022913;28;20212;-77
2022/05/24 13:25:44;;;;;;;3.78;1.20;;;17.50;97.20;;;;;;5021296;28;20225;-78
2022/05/24 13:28:12;;;;;;;3.60;1.33;;;17.40;97.50;;;;;;5021309;28;20201;-77
2022/05/24 13:33:37;;;;;;;3.10;1.13;;;17.80;96.70;;;;;;5024008;28;20199;-77
2022/05/24 13:36:29;;;;;;;2.55;1.30;;;18.30;95.70;;;;;;5021177;28;20200;-77
2022/05/24 13:39:13;;;;;;;1.65;1.02;;;18.30;94.70;;;;;;5015639;28;20232;-77
2022/05/24 13:41:45;;;;;;;1.10;0.90;;;18.00;94.40;;;;;;5008144;28;20215;-77
2022/05/24 13:44:34;;;;;;;1.85;1.10;;;18.40;95.20;;;;;;5014099;28;20208;-77
2022/05/24 13:47:04;;;;;;;1.73;0.95;;;18.80;94.70;;;;;;5003928;28;20200;-76
2022/05/24 13:49:43;;;;;;;2.95;0.90;;;18.80;92.80;;;;;;5002326;28;20211;-76
2022/05/24 13:52:22;;;;;;;1.50;0.65;;;18.80;91.40;;;;;;5019318;28;20195;-77
2022/05/24 13:54:53;;;;;;;1.60;0.80;;;18.70;90.60;;;;;;5016917;28;20203;-77
2022/05/24 13:57:28;;;;;;;1.23;1.13;;;18.70;90.20;;;;;;5005079;28;20204;-77
2022/05/24 14:00:28;;;;;;;1.83;1.00;;;18.60;90.10;;;;;;5022281;28;20233;-77
2022/05/24 14:03:13;;;;;;;3.42;1.10;;;18.80;88.50;;;;;;5003866;28;20287;-77